createdAt,value
2023-10-20T00:03:24.024Z,97509.66
2023-10-20T00:07:28.247Z,97508.75
2023-10-20T00:11:31.618Z,97499.91
2023-10-20T00:15:36.050Z,97496.34
2023-10-20T00:19:40.605Z,97523.72
2023-10-20T00:23:43.892Z,97516.72
2023-10-20T00:27:47.539Z,97495.53
2023-10-20T00:31:50.911Z,97483.25
2023-10-20T00:35:55.418Z,97477.91
2023-10-20T00:39:58.691Z,97468.38
2023-10-20T00:44:01.622Z,97453.31
2023-10-20T00:48:05.514Z,97460.16
2023-10-20T00:52:11.070Z,97454.78
2023-10-20T00:56:14.534Z,97460.91
2023-10-20T01:00:18.111Z,97442.38
2023-10-20T01:04:21.874Z,97435.25
2023-10-20T01:08:26.457Z,97443.03
2023-10-20T01:12:29.804Z,97441.25
2023-10-20T01:16:33.284Z,97436.00
2023-10-20T01:20:38.068Z,97434.25
2023-10-20T01:24:42.751Z,97429.81
2023-10-20T01:28:46.074Z,97423.56
2023-10-20T01:32:49.158Z,97413.81
2023-10-20T01:36:52.680Z,97410.31
2023-10-20T01:40:57.002Z,97406.72
2023-10-20T01:45:00.257Z,97409.31
2023-10-20T01:49:03.215Z,97401.31
2023-10-20T01:53:06.905Z,97391.63
2023-10-20T01:57:11.470Z,97383.63
2023-10-20T02:01:14.475Z,97365.94
2023-10-20T02:05:17.671Z,97348.41
2023-10-20T02:09:21.019Z,97332.56
2023-10-20T02:13:25.896Z,97332.56
2023-10-20T02:17:29.307Z,97351.03
2023-10-20T02:21:32.440Z,97348.47
2023-10-20T02:25:36.114Z,97340.47
2023-10-20T02:29:41.697Z,97334.34
2023-10-20T02:33:44.983Z,97336.13
2023-10-20T02:37:48.423Z,97328.19
2023-10-20T02:41:51.782Z,97322.84
2023-10-20T02:45:56.855Z,97314.84
2023-10-20T02:50:00.359Z,97309.44
2023-10-20T02:54:03.912Z,97309.44
2023-10-20T02:58:07.351Z,97300.59
2023-10-20T03:02:11.723Z,97284.69
2023-10-20T03:06:15.476Z,97291.53
2023-10-20T03:10:18.450Z,97291.47
2023-10-20T03:14:22.424Z,97300.19
2023-10-20T03:18:26.980Z,97303.66
2023-10-20T03:22:30.801Z,97303.72
2023-10-20T03:26:34.138Z,97309.00
2023-10-20T03:30:41.053Z,97300.19
2023-10-20T03:34:45.427Z,97292.31
2023-10-20T03:38:51.310Z,97284.47
2023-10-20T03:42:54.224Z,97270.50
2023-10-20T03:46:59.194Z,97269.63
2023-10-20T03:51:06.495Z,97269.53
2023-10-20T03:55:10.440Z,97266.97
2023-10-20T03:59:14.807Z,97274.91
2023-10-20T04:03:18.331Z,97274.91
2023-10-20T04:07:22.629Z,97270.50
2023-10-20T04:11:25.930Z,97273.19
2023-10-20T04:15:33.769Z,97268.00
2023-10-20T04:19:37.105Z,97289.09
2023-10-20T04:23:41.752Z,97269.78
2023-10-20T04:27:50.798Z,97263.63
2023-10-20T04:32:07.683Z,97262.72
2023-10-20T04:36:28.467Z,97231.88
2023-10-20T04:40:52.096Z,97228.25
2023-10-20T04:45:21.204Z,97236.16
2023-10-20T04:49:41.643Z,97226.53
2023-10-20T04:53:54.078Z,97216.75
2023-10-20T04:58:05.459Z,97199.97
2023-10-20T05:02:14.998Z,97198.25
2023-10-20T05:06:28.588Z,97205.25
2023-10-20T05:10:31.846Z,97212.25
2023-10-20T05:14:36.518Z,97211.31
2023-10-20T05:18:40.102Z,97199.84
2023-10-20T05:22:43.087Z,97200.63
2023-10-20T05:26:47.713Z,97199.66
2023-10-20T05:30:52.395Z,97196.13
2023-10-20T05:34:56.188Z,97189.09
2023-10-20T05:38:59.153Z,97197.97
2023-10-20T05:43:04.745Z,97196.25
2023-10-20T05:47:09.535Z,97185.88
2023-10-20T05:51:13.673Z,97191.16
2023-10-20T05:55:16.954Z,97195.41
2023-10-20T05:59:20.255Z,97191.75
2023-10-20T06:03:26.026Z,97188.19
2023-10-20T06:07:30.000Z,97175.84
2023-10-20T06:11:33.090Z,97185.41
2023-10-20T06:15:38.360Z,97187.09
2023-10-20T06:19:43.100Z,97177.34
2023-10-20T06:23:47.604Z,97172.84
2023-10-20T06:27:50.592Z,97171.81
2023-10-20T06:31:59.379Z,97163.91
2023-10-20T06:36:11.634Z,97172.56
2023-10-20T06:40:18.010Z,97181.28
2023-10-20T06:44:21.062Z,97179.41
2023-10-20T06:48:24.571Z,97147.72
2023-10-20T06:52:28.909Z,97144.06
2023-10-20T06:56:32.182Z,97157.03
2023-10-20T07:00:37.332Z,97146.31
2023-10-20T07:04:42.749Z,97141.88
2023-10-20T07:08:47.353Z,97132.94
2023-10-20T07:12:50.702Z,97123.06
2023-10-20T07:16:53.835Z,97115.06
2023-10-20T07:20:58.949Z,97117.47
2023-10-20T07:25:04.837Z,97107.47
2023-10-20T07:29:08.392Z,97115.84
2023-10-20T07:33:12.152Z,97104.94
2023-10-20T07:37:16.506Z,97108.19
2023-10-20T07:41:20.841Z,97099.00
2023-10-20T07:45:24.334Z,97098.69
2023-10-20T07:49:27.339Z,97079.84
2023-10-20T07:53:31.011Z,97082.31
2023-10-20T07:57:36.501Z,97068.19
2023-10-20T08:01:39.874Z,97053.84
2023-10-20T08:05:43.103Z,97041.22
2023-10-20T08:09:46.637Z,97027.59
2023-10-20T08:13:52.703Z,97027.25
2023-10-20T08:17:56.509Z,97021.50
2023-10-20T08:22:00.469Z,97018.53
2023-10-20T08:26:03.979Z,97010.44
2023-10-20T08:30:09.481Z,97009.22
2023-10-20T08:34:12.711Z,97004.38
2023-10-20T08:38:15.655Z,97002.16
2023-10-20T08:42:19.290Z,96971.53
2023-10-20T08:46:24.827Z,96968.44
2023-10-20T08:50:30.962Z,96952.97
2023-10-20T08:54:34.698Z,96944.09
2023-10-20T08:58:38.944Z,96937.31
2023-10-20T09:02:44.238Z,96912.38
2023-10-20T09:06:47.784Z,96915.88
2023-10-20T09:10:51.908Z,96919.38
2023-10-20T09:14:57.953Z,96894.00
2023-10-20T09:19:02.518Z,96911.22
2023-10-20T09:23:13.383Z,96935.81
2023-10-20T09:27:16.955Z,96929.59
2023-10-20T09:31:21.484Z,96922.44
2023-10-20T09:35:26.994Z,96899.44
2023-10-20T09:39:40.808Z,96901.25
2023-10-20T09:43:49.467Z,96907.69
2023-10-20T09:47:59.374Z,96932.22
2023-10-20T09:52:06.245Z,96939.47
2023-10-20T09:56:10.286Z,96946.97
2023-10-20T10:00:14.421Z,96933.66
2023-10-20T10:04:26.457Z,96920.63
2023-10-20T10:08:32.623Z,96910.09
2023-10-20T10:12:35.926Z,96898.97
2023-10-20T10:16:49.916Z,96885.38
2023-10-20T10:20:53.627Z,96883.59
2023-10-20T10:24:59.310Z,96882.81
2023-10-20T10:29:02.622Z,96873.25
2023-10-20T10:33:07.621Z,96881.75
2023-10-20T10:37:11.216Z,96880.25
2023-10-20T10:41:15.696Z,96889.44
2023-10-20T10:45:21.413Z,96890.88
2023-10-20T10:49:24.432Z,96896.66
2023-10-20T10:53:28.814Z,96903.44
2023-10-20T10:57:34.388Z,96895.25
2023-10-20T11:01:39.836Z,96904.13
2023-10-20T11:05:43.107Z,96888.06
2023-10-20T11:09:46.498Z,96897.81
2023-10-20T11:13:50.812Z,96900.34
2023-10-20T11:17:54.272Z,96903.88
2023-10-20T11:21:57.866Z,96911.78
2023-10-20T11:26:01.174Z,96894.59
2023-10-20T11:30:08.736Z,96898.00
2023-10-20T11:34:12.084Z,96886.00
2023-10-20T11:38:17.261Z,96874.19
2023-10-20T11:42:21.370Z,96881.81
2023-10-20T11:46:25.709Z,96881.66
2023-10-20T11:50:29.765Z,96876.03
2023-10-20T11:54:33.824Z,96904.38
2023-10-20T11:58:37.268Z,96880.69
2023-10-20T12:02:42.090Z,96900.00
2023-10-20T12:06:45.645Z,96907.91
2023-10-20T12:10:48.864Z,96895.22
2023-10-20T12:14:52.253Z,96889.47
2023-10-20T12:18:56.645Z,96895.38
2023-10-20T12:23:01.282Z,96886.41
2023-10-20T12:27:04.805Z,96889.66
2023-10-20T12:31:08.260Z,96890.22
2023-10-20T12:35:13.303Z,96900.66
2023-10-20T12:39:19.700Z,96905.75
2023-10-20T12:43:23.002Z,96901.25
2023-10-20T12:47:26.368Z,96895.59
2023-10-20T12:51:30.940Z,96904.22
2023-10-20T12:55:34.277Z,96904.22
2023-10-20T12:59:37.275Z,96910.97
2023-10-20T13:03:40.640Z,96895.31
2023-10-20T13:07:45.320Z,96895.03
2023-10-20T13:11:48.594Z,96903.50
2023-10-20T13:15:52.121Z,96886.00
2023-10-20T13:19:55.392Z,96892.91
2023-10-20T13:23:59.752Z,96901.25
2023-10-20T13:28:05.681Z,96887.56
2023-10-20T13:32:08.623Z,96908.59
2023-10-20T13:36:12.292Z,96906.59
2023-10-20T13:40:17.052Z,96910.81
2023-10-20T13:44:20.349Z,96903.06
2023-10-20T13:48:23.416Z,96931.16
2023-10-20T13:52:26.787Z,96936.25
2023-10-20T13:56:31.727Z,96959.00
2023-10-20T14:00:37.174Z,96950.66
2023-10-20T14:04:40.444Z,96970.13
2023-10-20T14:08:44.027Z,96967.03
2023-10-20T14:12:48.425Z,96972.41
2023-10-20T14:16:54.234Z,96984.84
2023-10-20T14:20:57.197Z,96970.84
2023-10-20T14:25:00.588Z,96970.13
2023-10-20T14:29:05.503Z,96979.19
2023-10-20T14:33:08.932Z,96982.69
2023-10-20T14:37:11.941Z,96963.94
2023-10-20T14:41:15.214Z,96930.63
2023-10-20T14:45:19.694Z,96891.75
2023-10-20T14:49:22.999Z,96885.38
2023-10-20T14:53:26.293Z,96883.78
2023-10-20T14:57:29.680Z,96868.97
2023-10-20T15:01:34.891Z,96882.47
2023-10-20T15:05:39.954Z,96885.88
2023-10-20T15:09:43.068Z,96885.56
2023-10-20T15:13:46.503Z,96835.97
2023-10-20T15:17:50.933Z,96819.69
2023-10-20T15:21:54.610Z,96832.66
2023-10-20T15:25:57.627Z,96850.19
2023-10-20T15:30:00.981Z,96924.66
2023-10-20T15:34:05.340Z,96966.50
2023-10-20T15:38:11.807Z,96967.19
2023-10-20T15:42:15.164Z,96945.84
2023-10-20T15:46:18.649Z,96926.22
2023-10-20T15:50:23.124Z,96912.94
2023-10-20T15:54:26.700Z,96925.34
2023-10-20T15:58:30.058Z,96934.97
2023-10-20T16:02:33.634Z,96972.25
2023-10-20T16:06:37.968Z,97004.50
2023-10-20T16:10:41.321Z,97026.16
2023-10-20T16:14:44.918Z,97054.81
2023-10-20T16:18:48.305Z,97063.91
2023-10-20T16:22:52.885Z,97070.25
2023-10-20T16:26:56.200Z,97068.56
2023-10-20T16:31:01.280Z,97070.94
2023-10-20T16:35:05.581Z,97081.69
2023-10-20T16:39:12.138Z,97080.00
2023-10-20T16:43:15.505Z,97079.13
2023-10-20T16:47:18.475Z,97096.00
2023-10-20T16:51:21.981Z,97144.16
2023-10-20T16:55:26.311Z,97153.25
2023-10-20T16:59:29.636Z,97144.16
2023-10-20T17:03:32.891Z,97153.94
2023-10-20T17:07:36.328Z,97183.47
2023-10-20T17:11:40.627Z,97187.16
2023-10-20T17:15:43.908Z,97190.84
2023-10-20T17:19:46.963Z,97199.03
2023-10-20T17:23:50.269Z,97209.34
2023-10-20T17:27:54.550Z,97210.50
2023-10-20T17:31:57.840Z,97211.72
2023-10-20T17:36:05.155Z,97224.72
2023-10-20T17:40:13.434Z,97224.16
2023-10-20T17:44:18.137Z,97224.44
2023-10-20T17:48:21.454Z,97227.41
2023-10-20T17:52:24.724Z,97229.53
2023-10-20T17:56:28.475Z,97232.63
2023-10-20T18:00:35.391Z,97212.56
2023-10-20T18:04:38.799Z,97224.25
2023-10-20T18:08:42.238Z,97215.63
2023-10-20T18:12:45.645Z,97216.78
2023-10-20T18:16:51.838Z,97234.00
2023-10-20T18:20:56.449Z,97222.69
2023-10-20T18:24:59.499Z,97222.94
2023-10-20T18:29:03.089Z,97218.59
2023-10-20T18:33:07.555Z,97218.03
2023-10-20T18:37:11.111Z,97207.41
2023-10-20T18:41:17.919Z,97213.06
2023-10-20T18:45:21.215Z,97205.13
2023-10-20T18:49:25.524Z,97210.63
2023-10-20T18:53:28.812Z,97213.59
2023-10-20T18:57:31.800Z,97231.53
2023-10-20T19:01:35.216Z,97256.66
2023-10-20T19:05:40.223Z,97266.53
2023-10-20T19:09:44.002Z,97265.69
2023-10-20T19:13:47.119Z,97258.75
2023-10-20T19:17:50.447Z,97264.41
2023-10-20T19:21:54.836Z,97260.00
2023-10-20T19:26:02.249Z,97283.31
2023-10-20T19:30:06.407Z,97258.31
2023-10-20T19:34:09.924Z,97274.28
2023-10-20T19:38:14.249Z,97276.13
2023-10-20T19:42:18.244Z,97289.41
2023-10-20T19:46:21.639Z,97300.25
2023-10-20T19:50:25.650Z,97291.50
2023-10-20T19:54:30.404Z,97287.19
2023-10-20T19:58:33.770Z,97281.13
2023-10-20T20:02:37.039Z,97283.22
2023-10-20T20:06:40.847Z,97281.81
2023-10-20T20:10:45.593Z,97280.09
2023-10-20T20:14:48.983Z,97278.69
2023-10-20T20:18:52.033Z,97292.22
2023-10-20T20:22:55.564Z,97294.06
2023-10-20T20:27:01.934Z,97288.81
2023-10-20T20:31:06.043Z,97282.88
2023-10-20T20:35:10.038Z,97296.66
2023-10-20T20:39:13.587Z,97297.75
2023-10-20T20:43:18.146Z,97301.69
2023-10-20T20:47:21.780Z,97302.97
2023-10-20T20:51:24.773Z,97304.94
2023-10-20T20:55:28.090Z,97294.59
2023-10-20T20:59:32.396Z,97294.84
2023-10-20T21:03:35.857Z,97296.34
2023-10-20T21:07:38.968Z,97276.28
2023-10-20T21:11:42.333Z,97285.66
2023-10-20T21:15:47.087Z,97294.84
2023-10-20T21:19:50.272Z,97300.56
2023-10-20T21:23:53.265Z,97299.94
2023-10-20T21:27:56.555Z,97309.94
2023-10-20T21:32:00.843Z,97312.88
2023-10-20T21:36:04.501Z,97309.47
2023-10-20T21:40:08.720Z,97301.69
2023-10-20T21:44:12.045Z,97322.41
2023-10-20T21:48:16.487Z,97328.88
2023-10-20T21:52:20.033Z,97322.66
2023-10-20T21:56:22.974Z,97319.25
2023-10-20T22:04:55.067Z,97324.13
2023-10-20T22:08:58.357Z,97317.22
2023-10-20T22:13:01.372Z,97317.47
2023-10-20T22:17:06.618Z,97331.94
2023-10-20T22:21:11.022Z,97329.41
2023-10-20T22:25:15.056Z,97331.22
2023-10-20T22:29:18.682Z,97333.19
2023-10-20T22:33:22.183Z,97344.13
2023-10-20T22:37:26.567Z,97353.16
2023-10-20T22:41:29.859Z,97357.66
2023-10-20T22:45:32.793Z,97369.34
2023-10-20T22:49:36.245Z,97361.31
2023-10-20T22:53:40.705Z,97355.13
2023-10-20T22:57:44.990Z,97379.22
2023-10-20T23:01:47.971Z,97378.22
2023-10-20T23:05:51.354Z,97386.25
2023-10-20T23:09:55.665Z,97373.72
2023-10-20T23:13:59.158Z,97379.06
2023-10-20T23:18:02.683Z,97377.38
2023-10-20T23:22:06.331Z,97385.31
2023-10-20T23:26:10.704Z,97383.59
2023-10-20T23:30:15.083Z,97399.66
2023-10-20T23:34:18.039Z,97389.06
2023-10-20T23:38:21.319Z,97389.19
2023-10-20T23:42:25.652Z,97413.41
2023-10-20T23:46:28.981Z,97412.66
2023-10-20T23:50:32.043Z,97429.63
2023-10-20T23:54:35.290Z,97432.53
2023-10-20T23:58:39.589Z,97444.19
